createdAt,value
2023-03-12T00:02:17.340Z,67.74
2023-03-12T00:04:44.382Z,67.12
2023-03-12T00:07:15.130Z,66.70
2023-03-12T00:09:42.164Z,66.54
2023-03-12T00:12:09.629Z,67.31
2023-03-12T00:14:37.126Z,67.15
2023-03-12T00:17:04.265Z,67.32
2023-03-12T00:19:31.464Z,67.84
2023-03-12T00:21:58.360Z,68.18
2023-03-12T00:24:25.245Z,66.47
2023-03-12T00:26:52.123Z,66.77
2023-03-12T00:29:18.929Z,66.88
2023-03-12T00:31:46.640Z,67.10
2023-03-12T00:34:13.514Z,66.68
2023-03-12T00:36:41.420Z,66.84
2023-03-12T00:39:08.519Z,66.60
2023-03-12T00:41:35.510Z,67.34
2023-03-12T00:44:02.416Z,66.63
2023-03-12T00:46:29.304Z,66.94
2023-03-12T00:48:56.218Z,68.14
2023-03-12T00:51:23.476Z,68.16
2023-03-12T00:53:50.492Z,68.69
2023-03-12T00:56:17.374Z,69.10
2023-03-12T00:58:44.308Z,69.15
2023-03-12T01:01:11.597Z,68.46
2023-03-12T01:03:38.841Z,68.67
2023-03-12T01:06:06.597Z,69.03
2023-03-12T01:08:34.351Z,68.96
2023-03-12T01:11:01.357Z,69.35
2023-03-12T01:13:28.660Z,68.78
2023-03-12T01:15:55.551Z,68.33
2023-03-12T01:18:22.537Z,67.34
2023-03-12T01:20:49.655Z,67.68
2023-03-12T01:23:16.842Z,66.95
2023-03-12T01:25:43.899Z,67.14
2023-03-12T01:28:10.788Z,67.86
2023-03-12T01:30:37.681Z,67.90
2023-03-12T01:33:04.785Z,67.41
2023-03-12T01:35:37.916Z,67.36
2023-03-12T01:38:12.268Z,67.32
2023-03-12T01:40:39.565Z,67.27
2023-03-12T01:43:37.324Z,67.89
2023-03-12T01:46:26.936Z,67.45
2023-03-12T01:48:56.297Z,68.12
2023-03-12T01:51:27.090Z,68.22
2023-03-12T01:53:58.358Z,68.73
2023-03-12T01:56:28.265Z,68.56
2023-03-12T01:58:58.579Z,68.42
2023-03-12T02:01:26.693Z,69.00
2023-03-12T02:03:56.347Z,69.33
2023-03-12T02:06:31.079Z,70.04
2023-03-12T02:09:01.010Z,70.21
2023-03-12T02:11:28.032Z,70.53
2023-03-12T02:13:55.005Z,70.51
2023-03-12T02:16:21.933Z,71.35
2023-03-12T02:18:52.828Z,71.17
2023-03-12T02:21:33.782Z,71.73
2023-03-12T02:24:12.543Z,71.92
2023-03-12T02:26:40.576Z,72.83
2023-03-12T02:29:10.595Z,73.22
2023-03-12T02:31:52.893Z,73.03
2023-03-12T02:34:19.981Z,73.25
2023-03-12T02:36:49.126Z,73.53
2023-03-12T02:39:16.335Z,74.01
2023-03-12T02:41:48.766Z,74.04
2023-03-12T02:44:15.722Z,74.52
2023-03-12T02:46:50.056Z,74.89
2023-03-12T02:49:19.493Z,74.62
2023-03-12T02:51:47.773Z,75.24
2023-03-12T02:54:17.388Z,75.18
2023-03-12T02:56:44.318Z,75.54
2023-03-12T02:59:13.311Z,75.68
2023-03-12T03:01:40.560Z,75.97
2023-03-12T03:04:08.694Z,75.99
2023-03-12T03:06:37.376Z,75.68
2023-03-12T03:09:04.224Z,75.93
2023-03-12T03:11:31.612Z,76.89
2023-03-12T03:13:58.436Z,77.01
2023-03-12T03:16:25.325Z,77.76
2023-03-12T03:18:52.333Z,77.84
2023-03-12T03:21:19.466Z,77.44
2023-03-12T03:23:48.360Z,77.11
2023-03-12T03:26:18.229Z,77.80
2023-03-12T03:28:45.505Z,77.52
2023-03-12T03:31:13.047Z,77.85
2023-03-12T03:33:40.657Z,78.47
2023-03-12T03:36:09.002Z,78.35
2023-03-12T03:38:36.034Z,78.34
2023-03-12T03:41:04.030Z,78.13
2023-03-12T03:43:31.512Z,80.18
2023-03-12T03:46:03.182Z,79.25
2023-03-12T03:48:30.229Z,79.22
2023-03-12T03:51:01.939Z,79.06
2023-03-12T03:53:28.881Z,79.22
2023-03-12T03:55:56.147Z,79.30
2023-03-12T03:58:23.542Z,78.66
2023-03-12T04:00:50.777Z,79.19
2023-03-12T04:03:17.719Z,77.78
2023-03-12T04:05:45.436Z,75.81
2023-03-12T04:08:13.612Z,74.63
2023-03-12T04:10:41.018Z,75.17
2023-03-12T04:13:07.925Z,75.58
2023-03-12T04:15:34.831Z,76.40
2023-03-12T04:18:01.878Z,76.16
2023-03-12T04:20:28.864Z,76.22
2023-03-12T04:22:55.877Z,76.54
2023-03-12T04:25:22.727Z,76.47
2023-03-12T04:27:50.008Z,76.89
2023-03-12T04:30:17.674Z,76.61
2023-03-12T04:32:44.624Z,76.93
2023-03-12T04:35:11.490Z,77.31
2023-03-12T04:37:40.582Z,78.19
2023-03-12T04:40:09.786Z,78.23
2023-03-12T04:42:37.342Z,78.98
2023-03-12T04:45:07.977Z,79.08
2023-03-12T04:47:34.884Z,79.53
2023-03-12T04:50:01.888Z,79.55
2023-03-12T04:52:28.936Z,80.14
2023-03-12T04:54:56.030Z,81.22
2023-03-12T04:57:22.891Z,81.71
2023-03-12T04:59:49.767Z,81.66
2023-03-12T05:02:16.740Z,82.35
2023-03-12T05:04:43.617Z,82.94
2023-03-12T05:07:10.611Z,82.70
2023-03-12T05:09:37.947Z,82.97
2023-03-12T05:12:05.174Z,83.35
2023-03-12T05:14:31.999Z,83.30
2023-03-12T05:16:58.847Z,83.98
2023-03-12T05:19:25.993Z,83.30
2023-03-12T05:21:53.002Z,83.49
2023-03-12T05:24:21.994Z,83.23
2023-03-12T05:26:48.876Z,83.94
2023-03-12T05:29:15.866Z,84.09
2023-03-12T05:31:43.252Z,84.22
2023-03-12T05:34:12.702Z,84.33
2023-03-12T05:36:39.898Z,84.02
2023-03-12T05:39:07.377Z,83.97
2023-03-12T05:41:34.958Z,83.46
2023-03-12T05:44:01.852Z,83.00
2023-03-12T05:46:29.077Z,83.88
2023-03-12T05:48:56.098Z,83.58
2023-03-12T05:51:23.419Z,83.82
2023-03-12T05:53:50.563Z,83.60
2023-03-12T05:56:18.453Z,83.84
2023-03-12T05:58:49.271Z,83.74
2023-03-12T06:01:22.894Z,84.02
2023-03-12T06:03:50.464Z,83.45
2023-03-12T06:06:18.260Z,83.32
2023-03-12T06:08:45.893Z,83.48
2023-03-12T06:11:13.375Z,83.58
2023-03-12T06:13:40.650Z,82.94
2023-03-12T06:16:09.579Z,82.89
2023-03-12T06:18:37.533Z,81.82
2023-03-12T06:21:11.757Z,81.26
2023-03-12T06:23:39.254Z,80.73
2023-03-12T06:26:07.151Z,80.27
2023-03-12T06:28:34.738Z,79.83
2023-03-12T06:31:02.857Z,77.89
2023-03-12T06:33:29.915Z,78.18
2023-03-12T06:35:58.892Z,76.95
2023-03-12T06:38:26.209Z,76.00
2023-03-12T06:41:01.846Z,75.44
2023-03-12T06:43:31.199Z,75.49
2023-03-12T06:45:59.812Z,74.85
2023-03-12T06:48:27.856Z,75.29
2023-03-12T06:50:55.461Z,73.92
2023-03-12T06:53:23.081Z,73.88
2023-03-12T06:55:51.549Z,73.27
2023-03-12T06:58:19.282Z,72.50
2023-03-12T07:00:46.203Z,70.49
2023-03-12T07:03:13.278Z,70.96
2023-03-12T07:05:44.771Z,70.61
2023-03-12T07:08:11.912Z,67.87
2023-03-12T07:10:38.823Z,67.20
2023-03-12T07:13:06.679Z,66.20
2023-03-12T07:15:34.033Z,66.38
2023-03-12T07:18:03.738Z,65.61
2023-03-12T07:20:30.659Z,64.17
2023-03-12T07:22:57.613Z,64.79
2023-03-12T07:25:24.536Z,63.11
2023-03-12T07:27:51.442Z,61.91
2023-03-12T07:30:18.526Z,60.30
2023-03-12T07:32:45.519Z,60.11
2023-03-12T07:35:12.741Z,60.95
2023-03-12T07:37:40.171Z,60.63
2023-03-12T07:40:08.148Z,59.93
2023-03-12T07:42:35.188Z,59.87
2023-03-12T07:45:02.199Z,58.89
2023-03-12T07:47:29.584Z,59.67
2023-03-12T07:50:00.852Z,59.95
2023-03-12T07:52:28.162Z,58.44
2023-03-12T07:54:56.581Z,58.78
2023-03-12T07:57:23.535Z,58.73
2023-03-12T07:59:50.600Z,58.79
2023-03-12T08:02:18.042Z,55.70
2023-03-12T08:04:45.616Z,54.49
2023-03-12T08:07:13.023Z,54.30
2023-03-12T08:09:40.283Z,53.82
2023-03-12T08:12:08.168Z,53.77
2023-03-12T08:14:35.655Z,52.89
2023-03-12T08:17:02.781Z,51.12
2023-03-12T08:19:29.785Z,51.25
2023-03-12T08:21:58.097Z,50.06
2023-03-12T08:24:25.938Z,50.27
2023-03-12T08:26:52.829Z,49.49
2023-03-12T08:29:20.453Z,48.96
2023-03-12T08:32:03.783Z,47.13
2023-03-12T08:34:31.836Z,45.42
2023-03-12T08:36:58.769Z,44.52
2023-03-12T08:39:25.783Z,45.88
2023-03-12T08:41:55.511Z,43.21
2023-03-12T08:44:23.351Z,42.81
2023-03-12T08:46:51.074Z,40.99
2023-03-12T08:49:18.474Z,41.64
2023-03-12T08:51:45.809Z,41.79
2023-03-12T08:54:13.194Z,41.72
2023-03-12T08:56:43.838Z,40.48
2023-03-12T08:59:11.805Z,42.46
2023-03-12T09:01:41.775Z,41.71
2023-03-12T09:04:10.845Z,41.11
2023-03-12T09:06:38.682Z,39.56
2023-03-12T09:09:05.960Z,38.81
2023-03-12T09:11:34.299Z,39.07
2023-03-12T09:14:39.517Z,38.00
2023-03-12T09:16:49.635Z,39.11
2023-03-12T09:19:16.925Z,39.03
2023-03-12T09:21:44.165Z,38.06
2023-03-12T09:24:11.735Z,38.12
2023-03-12T09:26:38.646Z,38.05
2023-03-12T09:29:05.935Z,37.90
2023-03-12T09:31:34.180Z,37.93
2023-03-12T09:34:01.040Z,36.34
2023-03-12T09:36:28.271Z,36.48
2023-03-12T09:38:55.370Z,35.28
2023-03-12T09:41:29.723Z,35.98
2023-03-12T09:44:38.954Z,34.73
2023-03-12T09:47:16.125Z,34.54
2023-03-12T09:49:52.052Z,35.14
2023-03-12T09:52:27.957Z,35.73
2023-03-12T09:55:03.393Z,34.16
2023-03-12T09:57:30.423Z,33.94
2023-03-12T09:59:58.089Z,33.20
2023-03-12T10:02:51.641Z,32.91
2023-03-12T10:05:57.692Z,32.39
2023-03-12T10:08:53.508Z,33.00
2023-03-12T10:11:37.367Z,31.30
2023-03-12T10:14:28.355Z,30.51
2023-03-12T10:17:15.103Z,30.46
2023-03-12T10:19:55.944Z,30.53
2023-03-12T10:22:40.973Z,30.18
2023-03-12T10:25:20.077Z,28.83
2023-03-12T10:27:47.769Z,28.81
2023-03-12T10:30:24.390Z,29.42
2023-03-12T10:32:59.566Z,27.84
2023-03-12T10:35:30.521Z,28.48
2023-03-12T10:38:02.537Z,28.29
2023-03-12T10:40:36.294Z,27.56
2023-03-12T10:43:04.327Z,26.47
2023-03-12T10:45:56.077Z,25.11
2023-03-12T10:48:25.594Z,25.03
2023-03-12T10:51:09.241Z,26.16
2023-03-12T10:53:39.256Z,26.67
2023-03-12T10:56:09.653Z,25.25
2023-03-12T10:58:45.095Z,25.31
2023-03-12T11:01:15.591Z,25.11
2023-03-12T11:03:44.369Z,24.84
2023-03-12T11:06:21.879Z,24.05
2023-03-12T11:09:19.520Z,23.63
2023-03-12T11:11:48.302Z,22.74
2023-03-12T11:14:21.191Z,22.96
2023-03-12T11:16:49.058Z,22.55
2023-03-12T11:19:31.025Z,22.16
2023-03-12T11:22:11.766Z,22.02
2023-03-12T11:25:00.147Z,22.41
2023-03-12T11:27:46.362Z,23.24
2023-03-12T11:30:22.259Z,22.86
2023-03-12T11:32:50.686Z,23.46
2023-03-12T11:35:26.683Z,22.44
2023-03-12T11:38:18.634Z,21.56
2023-03-12T11:41:02.351Z,22.00
2023-03-12T11:43:43.975Z,20.61
2023-03-12T11:46:26.503Z,22.59
2023-03-12T11:49:11.840Z,20.44
2023-03-12T11:52:10.792Z,20.81
2023-03-12T11:54:59.770Z,21.14
2023-03-12T11:57:38.390Z,18.58
2023-03-12T12:00:17.357Z,20.26
2023-03-12T12:03:28.607Z,20.11
2023-03-12T12:06:03.078Z,20.88
2023-03-12T12:08:50.464Z,19.90
2023-03-12T12:11:35.996Z,20.18
2023-03-12T12:14:39.864Z,19.46
2023-03-12T12:17:45.594Z,19.58
2023-03-12T12:20:25.751Z,19.56
2023-03-12T12:23:14.218Z,20.00
2023-03-12T12:25:57.716Z,20.15
2023-03-12T12:28:36.537Z,19.06
2023-03-12T12:31:19.467Z,20.56
2023-03-12T12:33:50.807Z,19.93
2023-03-12T12:36:18.523Z,19.97
2023-03-12T12:38:54.945Z,20.50
2023-03-12T12:41:26.526Z,20.27
2023-03-12T12:43:59.519Z,18.94
2023-03-12T12:46:32.375Z,19.52
2023-03-12T12:49:24.082Z,19.12
2023-03-12T12:52:12.576Z,20.26
2023-03-12T12:55:07.326Z,18.73
2023-03-12T12:58:05.921Z,18.49
2023-03-12T13:00:54.842Z,19.05
2023-03-12T13:03:25.063Z,17.92
2023-03-12T13:06:00.130Z,18.36
2023-03-12T13:08:39.687Z,19.02
2023-03-12T13:11:24.922Z,19.23
2023-03-12T13:14:13.860Z,19.40
2023-03-12T13:16:43.507Z,18.72
2023-03-12T13:19:13.554Z,18.96
2023-03-12T13:21:41.941Z,18.62
2023-03-12T13:24:18.425Z,18.85
2023-03-12T13:26:54.300Z,19.87
2023-03-12T13:29:30.376Z,18.66
2023-03-12T13:31:58.238Z,19.86
2023-03-12T13:34:28.689Z,18.34
2023-03-12T13:37:02.277Z,17.35
2023-03-12T13:39:34.893Z,17.61
2023-03-12T13:42:24.995Z,17.47
2023-03-12T13:44:53.921Z,18.91
2023-03-12T13:47:30.615Z,18.35
2023-03-12T13:50:08.640Z,17.14
2023-03-12T13:52:49.040Z,17.49
2023-03-12T13:55:29.483Z,17.27
2023-03-12T13:58:29.363Z,16.16
2023-03-12T14:01:08.205Z,16.16
2023-03-12T14:03:44.385Z,17.65
2023-03-12T14:06:24.323Z,16.46
2023-03-12T14:09:19.420Z,16.95
2023-03-12T14:12:03.506Z,14.51
2023-03-12T14:14:41.643Z,14.95
2023-03-12T14:17:24.775Z,15.29
2023-03-12T14:20:00.622Z,15.43
2023-03-12T14:22:33.890Z,15.96
2023-03-12T14:25:14.939Z,16.54
2023-03-12T14:27:47.636Z,17.54
2023-03-12T14:30:20.056Z,16.18
2023-03-12T14:32:50.391Z,16.53
2023-03-12T14:35:22.840Z,17.97
2023-03-12T14:38:06.589Z,17.49
2023-03-12T14:40:49.550Z,18.98
2023-03-12T14:43:23.756Z,19.50
2023-03-12T14:45:56.882Z,18.83
2023-03-12T14:48:29.457Z,19.47
2023-03-12T14:50:59.109Z,20.84
2023-03-12T14:53:35.824Z,19.00
2023-03-12T14:56:24.733Z,20.01
2023-03-12T14:58:52.845Z,20.22
2023-03-12T15:01:27.059Z,20.48
2023-03-12T15:03:58.696Z,21.78
2023-03-12T15:06:35.701Z,20.87
2023-03-12T15:09:05.868Z,21.30
2023-03-12T15:11:37.843Z,22.21
2023-03-12T15:14:09.429Z,22.01
2023-03-12T15:16:40.266Z,22.18
2023-03-12T15:19:14.240Z,24.04
2023-03-12T15:21:42.593Z,23.83
2023-03-12T15:24:14.100Z,23.86
2023-03-12T15:26:43.511Z,24.11
2023-03-12T15:29:29.095Z,23.81
2023-03-12T15:31:59.193Z,24.20
2023-03-12T15:34:33.413Z,25.40
2023-03-12T15:37:24.503Z,24.42
2023-03-12T15:39:53.475Z,23.67
2023-03-12T15:42:26.330Z,23.61
2023-03-12T15:45:03.488Z,23.76
2023-03-12T15:47:34.575Z,23.50
2023-03-12T15:50:10.241Z,23.85
2023-03-12T15:52:37.939Z,24.24
2023-03-12T15:55:14.451Z,24.71
2023-03-12T15:58:00.598Z,24.73
2023-03-12T16:00:46.755Z,24.53
2023-03-12T16:03:18.926Z,24.68
2023-03-12T16:05:47.550Z,24.63
2023-03-12T16:08:29.832Z,24.70
2023-03-12T16:10:57.390Z,24.80
2023-03-12T16:13:31.614Z,24.95
2023-03-12T16:15:59.340Z,25.37
2023-03-12T16:18:27.044Z,25.47
2023-03-12T16:20:55.628Z,25.94
2023-03-12T16:23:23.268Z,26.92
2023-03-12T16:25:56.747Z,26.80
2023-03-12T16:28:24.723Z,27.31
2023-03-12T16:30:53.201Z,28.32
2023-03-12T16:33:24.099Z,27.34
2023-03-12T16:35:52.381Z,28.16
2023-03-12T16:38:19.931Z,28.77
2023-03-12T16:40:49.881Z,28.43
2023-03-12T16:43:20.834Z,29.45
2023-03-12T16:45:50.160Z,29.29
2023-03-12T16:48:20.654Z,29.64
2023-03-12T16:50:53.094Z,30.74
2023-03-12T16:53:21.325Z,29.59
2023-03-12T16:55:58.667Z,29.77
2023-03-12T16:58:27.190Z,31.03
2023-03-12T17:00:55.846Z,30.17
2023-03-12T17:03:38.517Z,30.32
2023-03-12T17:06:07.962Z,30.88
2023-03-12T17:08:37.151Z,31.43
2023-03-12T17:11:23.714Z,31.72
2023-03-12T17:13:56.251Z,31.24
2023-03-12T17:16:24.240Z,31.51
2023-03-12T17:18:55.581Z,32.55
2023-03-12T17:21:23.549Z,32.04
2023-03-12T17:23:53.046Z,32.09
2023-03-12T17:26:20.824Z,31.97
2023-03-12T17:28:48.479Z,32.33
2023-03-12T17:31:16.148Z,32.22
2023-03-12T17:33:45.609Z,32.37
2023-03-12T17:36:13.321Z,32.43
2023-03-12T17:38:41.309Z,32.72
2023-03-12T17:41:23.388Z,32.69
2023-03-12T17:43:55.837Z,33.31
2023-03-12T17:46:23.646Z,33.92
2023-03-12T17:48:51.610Z,34.26
2023-03-12T17:51:19.274Z,34.55
2023-03-12T17:53:49.577Z,35.80
2023-03-12T17:56:18.736Z,37.42
2023-03-12T17:58:46.856Z,37.20
2023-03-12T18:01:15.792Z,36.61
2023-03-12T18:03:44.466Z,36.76
2023-03-12T18:06:12.703Z,36.18
2023-03-12T18:08:41.434Z,36.44
2023-03-12T18:11:10.179Z,36.47
2023-03-12T18:13:39.862Z,36.58
2023-03-12T18:16:13.713Z,40.28
2023-03-12T18:18:41.794Z,38.98
2023-03-12T18:21:09.841Z,39.40
2023-03-12T18:23:37.703Z,40.85
2023-03-12T18:26:05.606Z,40.71
2023-03-12T18:28:33.526Z,41.95
2023-03-12T18:31:04.648Z,42.88
2023-03-12T18:33:32.386Z,41.60
2023-03-12T18:36:00.291Z,41.09
2023-03-12T18:38:28.801Z,42.10
2023-03-12T18:41:14.174Z,42.39
2023-03-12T18:43:42.398Z,42.63
2023-03-12T18:46:10.213Z,42.01
2023-03-12T18:48:37.749Z,42.99
2023-03-12T18:51:05.573Z,42.66
2023-03-12T18:53:34.150Z,42.87
2023-03-12T18:56:01.983Z,43.70
2023-03-12T18:58:30.175Z,43.81
2023-03-12T19:00:58.896Z,44.71
2023-03-12T19:03:27.221Z,45.65
2023-03-12T19:06:06.140Z,46.73
2023-03-12T19:08:38.916Z,46.38
2023-03-12T19:11:13.133Z,46.67
2023-03-12T19:13:41.261Z,46.67
2023-03-12T19:16:11.773Z,47.08
2023-03-12T19:18:40.380Z,46.97
2023-03-12T19:21:09.029Z,47.02
2023-03-12T19:23:39.371Z,46.99
2023-03-12T19:26:08.187Z,47.96
2023-03-12T19:28:38.034Z,47.80
2023-03-12T19:31:09.684Z,48.00
2023-03-12T19:33:38.440Z,47.83
2023-03-12T19:36:09.676Z,48.31
2023-03-12T19:38:39.145Z,48.54
2023-03-12T19:41:09.671Z,48.12
2023-03-12T19:43:38.363Z,47.92
2023-03-12T19:46:07.384Z,46.92
2023-03-12T19:48:36.806Z,47.14
2023-03-12T19:51:12.199Z,46.40
2023-03-12T19:53:41.611Z,47.25
2023-03-12T19:56:09.272Z,47.43
2023-03-12T19:58:37.223Z,46.25
2023-03-12T20:01:05.293Z,46.99
2023-03-12T20:03:33.812Z,47.25
2023-03-12T20:06:03.294Z,46.43
2023-03-12T20:08:33.682Z,47.14
2023-03-12T20:11:11.557Z,46.81
2023-03-12T20:13:39.479Z,46.34
2023-03-12T20:16:08.311Z,46.04
2023-03-12T20:18:36.599Z,46.02
2023-03-12T20:21:04.808Z,46.36
2023-03-12T20:23:32.898Z,46.93
2023-03-12T20:26:02.995Z,49.06
2023-03-12T20:28:30.683Z,48.64
2023-03-12T20:30:58.410Z,49.43
2023-03-12T20:33:26.330Z,48.97
2023-03-12T20:35:53.860Z,49.55
2023-03-12T20:38:21.692Z,49.20
2023-03-12T20:40:49.997Z,49.58
2023-03-12T20:43:18.329Z,49.87
2023-03-12T20:45:48.561Z,51.42
2023-03-12T20:48:16.514Z,52.10
2023-03-12T20:50:45.273Z,52.07
2023-03-12T20:53:14.220Z,52.28
2023-03-12T20:55:42.267Z,51.86
2023-03-12T20:58:09.989Z,52.38
2023-03-12T21:00:38.359Z,51.73
2023-03-12T21:03:08.222Z,51.93
2023-03-12T21:05:35.634Z,51.92
2023-03-12T21:08:05.354Z,51.61
2023-03-12T21:10:36.522Z,50.90
2023-03-12T21:13:04.235Z,50.63
2023-03-12T21:15:31.898Z,50.27
2023-03-12T21:18:00.614Z,49.78
2023-03-12T21:20:28.671Z,49.21
2023-03-12T21:22:56.135Z,48.63
2023-03-12T21:25:24.464Z,48.39
2023-03-12T21:27:53.914Z,48.22
2023-03-12T21:30:21.419Z,48.06
2023-03-12T21:32:48.822Z,47.82
2023-03-12T21:35:16.605Z,47.47
2023-03-12T21:37:43.860Z,46.58
2023-03-12T21:40:12.101Z,46.17
2023-03-12T21:42:39.287Z,45.75
2023-03-12T21:45:07.569Z,45.50
2023-03-12T21:47:37.644Z,45.59
2023-03-12T21:50:07.120Z,44.97
2023-03-12T21:52:43.123Z,44.45
2023-03-12T21:55:10.737Z,44.49
2023-03-12T21:57:38.184Z,44.42
2023-03-12T22:00:06.200Z,44.51
2023-03-12T22:02:34.768Z,44.70
2023-03-12T22:05:01.768Z,44.80
2023-03-12T22:07:31.770Z,44.83
2023-03-12T22:09:59.790Z,44.79
2023-03-12T22:12:26.743Z,44.72
2023-03-12T22:14:53.556Z,45.11
2023-03-12T22:17:20.434Z,45.07
2023-03-12T22:19:47.311Z,45.18
2023-03-12T22:22:14.768Z,45.31
2023-03-12T22:24:41.633Z,45.74
2023-03-12T22:27:08.633Z,45.91
2023-03-12T22:29:35.563Z,46.06
2023-03-12T22:32:02.550Z,46.36
2023-03-12T22:34:33.955Z,46.53
2023-03-12T22:37:00.873Z,46.47
2023-03-12T22:39:27.805Z,46.74
2023-03-12T22:41:54.670Z,46.87
2023-03-12T22:44:21.759Z,46.99
2023-03-12T22:46:51.001Z,47.16
2023-03-12T22:49:18.139Z,47.47
2023-03-12T22:51:44.978Z,47.04
2023-03-12T22:54:11.866Z,47.36
2023-03-12T22:56:39.961Z,47.26
2023-03-12T22:59:06.857Z,47.47
2023-03-12T23:01:34.195Z,48.26
2023-03-12T23:04:01.374Z,47.98
2023-03-12T23:06:30.068Z,47.95
2023-03-12T23:08:57.614Z,48.15
2023-03-12T23:11:26.568Z,47.96
2023-03-12T23:13:54.356Z,48.01
2023-03-12T23:16:24.061Z,48.46
2023-03-12T23:18:52.067Z,48.18
2023-03-12T23:21:21.890Z,49.01
2023-03-12T23:23:49.947Z,49.02
2023-03-12T23:26:22.976Z,49.58
2023-03-12T23:28:53.319Z,49.85
2023-03-12T23:31:21.369Z,49.85
2023-03-12T23:33:48.605Z,50.22
2023-03-12T23:36:18.318Z,49.48
2023-03-12T23:38:46.564Z,51.25
2023-03-12T23:41:17.229Z,50.19
2023-03-12T23:43:44.544Z,51.29
2023-03-12T23:46:13.239Z,51.42
2023-03-12T23:48:40.862Z,51.42
2023-03-12T23:51:13.903Z,51.26
2023-03-12T23:53:43.026Z,50.95
2023-03-12T23:56:18.767Z,51.19
2023-03-12T23:58:47.355Z,50.75
